Time;durP1;ratioP1;P1;durP2;ratioP2;P2;SDS_P1;SDS_P2;PMS_P1;PMS_P2;Temp;Humidity;BMP_temperature;BMP_pressure;BME280_temperature;BME280_humidity;BME280_pressure;Samples;Min_cycle;Max_cycle;Signal;HPM_P1;HPM_P2
2022/08/11 00:00:38;;;;;;;;;;;;;;;17.80;50.25;97137.91;6274672;28;19932;-66
2022/08/11 00:03:47;;;;;;;;;;;;;;;17.74;50.13;97143.75;6273462;28;19925;-65
2022/08/11 00:06:49;;;;;;;;;;;;;;;17.65;50.29;97137.41;6274067;28;20030;-68
2022/08/11 00:09:53;;;;;;;;;;;;;;;17.61;50.53;97135.19;6274645;28;20280;-65
2022/08/11 00:12:55;;;;;;;;;;;;;;;17.53;50.43;97137.69;6273585;28;20405;-65
2022/08/11 00:15:59;;;;;;;;;;;;;;;17.47;52.11;97145.22;6274358;28;19924;-66
2022/08/11 00:19:02;;;;;;;;;;;;;;;17.46;53.20;97138.22;6274343;28;20284;-66
2022/08/11 00:22:05;;;;;;;;;;;;;;;17.47;51.60;97139.91;6274104;28;19927;-66
2022/08/11 00:25:19;;;;;;;;;;;;;;;17.47;53.34;97149.72;6273105;28;19924;-66
2022/08/11 00:28:27;;;;;;;;;;;;;;;17.49;51.31;97148.59;6274041;28;19924;-64
2022/08/11 00:31:32;;;;;;;;;;;;;;;17.45;54.16;97156.97;6273358;28;20325;-66
2022/08/11 00:34:37;;;;;;;;;;;;;;;17.42;52.03;97147.44;6273816;28;19921;-66
2022/08/11 00:37:44;;;;;;;;;;;;;;;17.39;51.50;97153.03;6273263;28;20398;-65
2022/08/11 00:40:54;;;;;;;;;;;;;;;17.34;51.20;97155.25;6272794;28;19943;-65
2022/08/11 00:44:09;;;;;;;;;;;;;;;17.32;51.48;97162.53;6272819;28;19932;-66
2022/08/11 00:47:23;;;;;;;;;;;;;;;17.27;51.59;97154.13;6272989;28;19928;-65
2022/08/11 00:50:42;;;;;;;;;;;;;;;17.25;51.85;97154.25;6272357;28;20005;-66
2022/08/11 00:54:04;;;;;;;;;;;;;;;17.26;52.05;97147.13;6273272;28;20353;-65
2022/08/11 00:57:34;;;;;;;;;;;;;;;17.28;55.24;97158.47;6272174;28;19979;-66
2022/08/11 01:00:47;;;;;;;;;;;;;;;17.32;54.00;97162.53;6273051;28;19925;-65
2022/08/11 01:04:19;;;;;;;;;;;;;;;17.34;51.82;97165.06;6273119;28;20018;-65
2022/08/11 01:07:41;;;;;;;;;;;;;;;17.33;51.76;97158.91;6272942;28;19924;-65
2022/08/11 01:10:53;;;;;;;;;;;;;;;17.30;53.33;97161.84;6273209;28;19929;-65
2022/08/11 01:14:15;;;;;;;;;;;;;;;17.34;52.94;97165.06;6273161;28;19986;-66
2022/08/11 01:17:36;;;;;;;;;;;;;;;17.39;52.86;97166.34;6273102;28;19935;-65
2022/08/11 01:20:43;;;;;;;;;;;;;;;17.49;52.36;97158.38;6272438;28;19928;-65
2022/08/11 01:24:02;;;;;;;;;;;;;;;17.56;51.68;97169.34;6272212;28;20309;-65
2022/08/11 01:27:16;;;;;;;;;;;;;;;17.58;51.71;97167.38;6272750;28;19925;-66
2022/08/11 01:30:20;;;;;;;;;;;;;;;17.60;52.39;97170.75;6272735;28;19931;-66
2022/08/11 01:33:39;;;;;;;;;;;;;;;17.64;52.30;97177.50;6272595;28;20416;-66
2022/08/11 01:36:52;;;;;;;;;;;;;;;17.65;52.33;97176.50;6272677;28;19925;-64
2022/08/11 01:40:12;;;;;;;;;;;;;;;17.66;52.84;97164.88;6254682;28;20070;-65
2022/08/11 01:46:38;;;;;;;;;;;;;;;17.77;52.61;97172.75;6272213;28;19925;-65
2022/08/11 01:49:44;;;;;;;;;;;;;;;17.83;52.74;97176.72;6271320;28;19925;-65
2022/08/11 01:53:11;;;;;;;;;;;;;;;17.89;53.23;97174.34;6272045;28;19932;-65
2022/08/11 01:56:32;;;;;;;;;;;;;;;17.97;52.97;97172.81;6271948;28;19924;-65
2022/08/11 01:59:48;;;;;;;;;;;;;;;18.02;54.93;97175.91;6271934;28;19924;-65
2022/08/11 02:02:58;;;;;;;;;;;;;;;18.08;52.64;97181.50;6270799;28;19925;-66
2022/08/11 02:09:54;;;;;;;;;;;;;;;18.28;52.81;97193.00;6271136;28;19924;-65
2022/08/11 02:13:06;;;;;;;;;;;;;;;18.37;51.93;97192.19;6253370;28;19931;-66
2022/08/11 02:16:20;;;;;;;;;;;;;;;18.45;53.05;97198.63;6271626;28;19925;-65
2022/08/11 02:26:20;;;;;;;;;;;;;;;18.87;52.04;97193.00;6270040;28;20346;-66
2022/08/11 02:29:31;;;;;;;;;;;;;;;18.98;51.80;97198.19;6271013;28;19932;-66
2022/08/11 02:36:18;;;;;;;;;;;;;;;19.18;51.61;97207.81;6270189;28;19948;-66
2022/08/11 02:39:27;;;;;;;;;;;;;;;19.38;51.21;97213.09;6267717;28;19966;-66
2022/08/11 02:42:39;;;;;;;;;;;;;;;19.56;51.28;97206.00;6270556;28;19967;-66
2022/08/11 02:45:59;;;;;;;;;;;;;;;19.70;50.58;97210.88;6269816;28;19924;-66
2022/08/11 02:52:25;;;;;;;;;;;;;;;19.88;50.56;97204.75;6270594;28;19925;-66
2022/08/11 02:55:40;;;;;;;;;;;;;;;20.00;51.63;97213.38;6270556;28;20286;-66
2022/08/11 02:59:49;;;;;;;;;;;;;;;20.13;50.13;97214.69;6270729;28;19931;-66
2022/08/11 03:02:24;;;;;;;;;;;;;;;20.30;51.02;97223.72;6270248;28;19924;-65
2022/08/11 03:05:33;;;;;;;;;;;;;;;20.50;51.81;97218.22;6270497;28;19929;-67
2022/08/11 03:08:38;;;;;;;;;;;;;;;20.66;49.03;97225.56;6269782;28;20314;-66
2022/08/11 03:18:41;;;;;;;;;;;;;;;21.08;49.06;97231.91;6269396;28;19925;-65
2022/08/11 03:21:50;;;;;;;;;;;;;;;21.20;49.19;97229.00;6273590;28;19971;-66
2022/08/11 03:24:59;;;;;;;;;;;;;;;21.35;49.24;97223.91;6257650;28;19931;-66
2022/08/11 03:28:05;;;;;;;;;;;;;;;21.41;49.88;97226.81;6275273;28;20003;-67
2022/08/11 03:31:12;;;;;;;;;;;;;;;21.60;49.03;97225.75;6274499;28;19931;-65
2022/08/11 03:34:22;;;;;;;;;;;;;;;21.77;48.83;97225.81;6275236;28;19964;-66
2022/08/11 03:37:52;;;;;;;;;;;;;;;21.92;48.77;97232.25;6274399;28;19924;-66
2022/08/11 03:44:54;;;;;;;;;;;;;;;22.23;49.17;97237.06;6275008;28;19925;-65
2022/08/11 03:47:58;;;;;;;;;;;;;;;22.31;48.53;97240.59;6274813;28;19955;-65
2022/08/11 03:51:22;;;;;;;;;;;;;;;22.44;48.42;97233.91;6274986;28;20372;-66
2022/08/11 03:54:26;;;;;;;;;;;;;;;22.60;48.30;97234.78;6266482;28;19924;-65
2022/08/11 03:57:48;;;;;;;;;;;;;;;22.74;48.29;97241.34;6274653;28;19924;-65
2022/08/11 04:01:07;;;;;;;;;;;;;;;22.85;48.28;97237.50;6274539;28;19925;-65
2022/08/11 04:04:11;;;;;;;;;;;;;;;23.03;48.10;97240.03;6273909;28;20379;-65
2022/08/11 04:07:19;;;;;;;;;;;;;;;23.18;47.73;97238.31;6274547;28;20411;-65
2022/08/11 04:10:35;;;;;;;;;;;;;;;23.36;47.61;97234.63;6274526;28;19924;-65
2022/08/11 04:13:54;;;;;;;;;;;;;;;23.57;48.13;97236.75;6273755;28;19932;-65
2022/08/11 04:17:18;;;;;;;;;;;;;;;23.61;48.17;97238.06;6274345;28;19925;-66
2022/08/11 04:20:40;;;;;;;;;;;;;;;23.79;47.57;97240.56;6254877;28;20376;-65
2022/08/11 04:24:04;;;;;;;;;;;;;;;23.93;47.62;97242.53;6274163;28;19967;-66
2022/08/11 04:27:31;;;;;;;;;;;;;;;24.04;47.20;97234.06;6272328;28;19925;-66
2022/08/11 04:30:35;;;;;;;;;;;;;;;24.25;46.61;97235.31;6273873;28;19924;-65
2022/08/11 04:33:58;;;;;;;;;;;;;;;24.46;46.43;97242.78;6273813;28;19925;-65
2022/08/11 04:37:33;;;;;;;;;;;;;;;24.61;45.86;97241.00;6273772;28;19928;-65
2022/08/11 04:40:55;;;;;;;;;;;;;;;24.89;44.82;97241.28;6271814;28;19932;-65
2022/08/11 04:44:02;;;;;;;;;;;;;;;24.96;44.31;97234.16;6256152;28;19929;-65
2022/08/11 04:47:03;;;;;;;;;;;;;;;25.18;43.93;97232.47;6273596;28;19925;-65
2022/08/11 05:03:57;;;;;;;;;;;;;;;38.04;27.89;97256.59;6273109;28;20414;-65
2022/08/11 05:07:03;;;;;;;;;;;;;;;40.90;22.97;97250.28;6272969;28;19925;-65
2022/08/11 05:10:17;;;;;;;;;;;;;;;43.19;23.37;97263.66;6272937;28;19980;-66
2022/08/11 05:58:24;;;;;;;;;;;;;;;54.02;8.49;97227.56;6271731;28;19925;-65
2022/08/11 06:01:30;;;;;;;;;;;;;;;54.08;8.58;97226.09;6271601;28;20406;-65
2022/08/11 06:04:34;;;;;;;;;;;;;;;55.39;7.53;97228.38;6271685;28;20341;-65
2022/08/11 06:07:39;;;;;;;;;;;;;;;56.58;7.98;97227.47;6271490;28;20059;-65
2022/08/11 06:10:43;;;;;;;;;;;;;;;57.67;6.55;97230.34;6270804;28;19931;-66
2022/08/11 06:13:45;;;;;;;;;;;;;;;57.79;8.12;97227.16;6271493;28;19921;-65
2022/08/11 06:16:47;;;;;;;;;;;;;;;58.28;7.48;97219.09;6253609;28;20461;-65
2022/08/11 06:19:57;;;;;;;;;;;;;;;57.92;7.57;97225.53;6271307;28;20446;-65
2022/08/11 06:23:03;;;;;;;;;;;;;;;57.78;7.65;97219.88;6271208;28;20330;-65
2022/08/11 06:26:09;;;;;;;;;;;;;;;58.27;7.38;97217.44;6270494;28;20391;-65
2022/08/11 06:29:11;;;;;;;;;;;;;;;59.00;6.91;97220.56;6270562;28;19924;-65
2022/08/11 06:32:14;;;;;;;;;;;;;;;59.38;6.65;97217.16;6270425;28;19925;-67
2022/08/11 06:35:22;;;;;;;;;;;;;;;59.29;5.64;97217.63;6270543;28;19925;-64
2022/08/11 06:38:42;;;;;;;;;;;;;;;59.62;6.71;97223.91;6271961;28;19932;-65
2022/08/11 06:42:02;;;;;;;;;;;;;;;60.16;6.59;97221.50;6284617;28;19931;-65
2022/08/11 06:45:16;;;;;;;;;;;;;;;60.71;5.72;97212.00;6298245;28;19925;-65
2022/08/11 06:48:22;;;;;;;;;;;;;;;61.51;6.04;97206.94;6248252;28;19928;-64
2022/08/11 06:51:29;;;;;;;;;;;;;;;62.24;5.30;97218.84;6282067;28;19925;-65
2022/08/11 06:54:40;;;;;;;;;;;;;;;62.14;4.94;97210.00;6276389;28;19909;-65
2022/08/11 07:01:12;;;;;;;;;;;;;;;62.12;4.73;97201.09;6256812;28;20074;-65
2022/08/11 07:04:21;;;;;;;;;;;;;;;62.34;3.85;97200.72;6256745;28;19925;-65
2022/08/11 07:28:54;;;;;;;;;;;;;;;63.83;4.43;97170.22;6259542;28;19925;-66
2022/08/11 07:53:14;;;;;;;;;;;;;;;64.29;3.11;97122.44;6252504;28;19968;-64
2022/08/11 07:56:18;;;;;;;;;;;;;;;63.76;2.68;97116.09;6250056;28;19992;-64
2022/08/11 08:19:37;;;;;;;;;;;;;;;56.91;5.15;97054.78;6224775;28;19929;-65
2022/08/11 08:22:41;;;;;;;;;;;;;;;57.18;5.50;97059.28;6224900;28;20414;-66
2022/08/11 08:25:44;;;;;;;;;;;;;;;58.31;5.17;97062.44;6224387;28;20384;-66
2022/08/11 08:28:47;;;;;;;;;;;;;;;59.58;4.75;97067.00;6224009;28;20426;-65
2022/08/11 08:31:51;;;;;;;;;;;;;;;61.01;3.56;97076.72;6224265;28;19925;-66
2022/08/11 08:34:56;;;;;;;;;;;;;;;60.50;4.10;97070.13;6224329;28;20423;-65
2022/08/11 08:38:01;;;;;;;;;;;;;;;60.24;4.02;97069.59;6224620;28;19925;-66
2022/08/11 08:41:04;;;;;;;;;;;;;;;61.19;3.73;97059.44;6223654;28;20294;-64
2022/08/11 08:44:10;;;;;;;;;;;;;;;61.13;3.72;97055.44;6206791;28;20028;-65
2022/08/11 08:47:14;;;;;;;;;;;;;;;59.59;4.50;97040.22;6224879;28;19930;-65
2022/08/11 08:50:21;;;;;;;;;;;;;;;59.88;4.32;97052.94;6207029;28;19925;-66
2022/08/11 08:53:31;;;;;;;;;;;;;;;58.80;4.30;97058.59;6224682;28;19925;-66
2022/08/11 08:56:38;;;;;;;;;;;;;;;57.51;4.95;97046.78;6224251;28;20346;-65
2022/08/11 08:59:45;;;;;;;;;;;;;;;56.77;5.58;97046.25;6223177;28;19925;-65
2022/08/11 09:02:52;;;;;;;;;;;;;;;53.88;7.35;97041.53;6224171;28;19936;-64
2022/08/11 09:05:55;;;;;;;;;;;;;;;49.53;9.24;97034.25;6223493;28;19925;-66
2022/08/11 09:08:58;;;;;;;;;;;;;;;46.11;11.73;97034.94;6222954;28;20027;-65
2022/08/11 09:12:01;;;;;;;;;;;;;;;43.12;13.60;97033.38;6222795;28;20260;-65
2022/08/11 09:15:06;;;;;;;;;;;;;;;42.16;13.87;97018.06;6222363;28;19921;-65
2022/08/11 09:18:09;;;;;;;;;;;;;;;40.96;14.78;97020.06;6222241;28;19925;-65
2022/08/11 09:21:13;;;;;;;;;;;;;;;39.66;15.91;97020.44;6222883;28;20319;-65
2022/08/11 09:27:39;;;;;;;;;;;;;;;38.10;17.01;97014.56;6222271;28;19932;-65
2022/08/11 09:30:52;;;;;;;;;;;;;;;38.67;16.49;97009.13;6223137;28;19926;-65
2022/08/11 09:33:54;;;;;;;;;;;;;;;41.55;14.10;97018.09;6222277;28;20020;-65
2022/08/11 09:40:30;;;;;;;;;;;;;;;43.20;13.96;97024.38;6222881;28;19925;-65
2022/08/11 09:47:11;;;;;;;;;;;;;;;40.13;16.19;97022.66;6221762;28;20374;-66
2022/08/11 09:50:15;;;;;;;;;;;;;;;39.71;16.37;97010.22;6222280;28;20430;-65
2022/08/11 09:53:19;;;;;;;;;;;;;;;40.36;16.03;97014.81;6221821;28;19926;-66
2022/08/11 09:59:43;;;;;;;;;;;;;;;43.72;13.64;97013.91;6221288;28;19925;-65
2022/08/11 10:02:51;;;;;;;;;;;;;;;43.83;13.13;97000.66;6222374;28;20012;-65
2022/08/11 10:09:20;;;;;;;;;;;;;;;41.58;15.11;96995.38;6222493;28;20028;-66
2022/08/11 10:12:26;;;;;;;;;;;;;;;40.63;15.98;96991.47;6222033;28;19925;-65
2022/08/11 10:15:34;;;;;;;;;;;;;;;39.96;16.39;96983.66;6221832;28;19932;-66
2022/08/11 10:18:41;;;;;;;;;;;;;;;39.98;16.53;96981.44;6221308;28;19932;-66
2022/08/11 10:28:33;;;;;;;;;;;;;;;38.27;17.46;96981.34;6221917;28;19925;-65
2022/08/11 10:34:58;;;;;;;;;;;;;;;39.14;16.41;96986.75;6220986;28;19925;-65
2022/08/11 10:38:02;;;;;;;;;;;;;;;41.92;14.63;96984.97;6221876;28;20306;-65
2022/08/11 10:44:49;;;;;;;;;;;;;;;43.99;13.84;97003.91;6221706;28;20387;-65
2022/08/11 10:47:54;;;;;;;;;;;;;;;44.44;13.84;96995.63;6221522;28;19925;-65
2022/08/11 10:51:12;;;;;;;;;;;;;;;44.63;13.42;97002.94;6221370;28;20391;-65
2022/08/11 11:00:57;;;;;;;;;;;;;;;43.67;14.05;96989.06;6221243;28;20319;-64
2022/08/11 11:04:03;;;;;;;;;;;;;;;43.67;14.22;96982.72;6221281;28;19925;-65
2022/08/11 11:07:16;;;;;;;;;;;;;;;43.92;14.06;96982.13;6221248;28;19925;-65
2022/08/11 11:10:17;;;;;;;;;;;;;;;42.84;14.90;96971.63;6220490;28;19926;-64
2022/08/11 11:20:02;;;;;;;;;;;;;;;38.34;18.75;96956.34;6220063;28;19937;-66
2022/08/11 11:23:18;;;;;;;;;;;;;;;37.85;18.80;96954.06;6220400;28;19925;-65
2022/08/11 11:26:37;;;;;;;;;;;;;;;37.68;19.36;96965.31;6219808;28;19932;-65
2022/08/11 11:29:41;;;;;;;;;;;;;;;37.37;19.54;96970.69;6202786;28;19987;-65
2022/08/11 11:33:03;;;;;;;;;;;;;;;36.62;20.00;96967.25;6220441;28;19925;-66
2022/08/11 11:36:23;;;;;;;;;;;;;;;35.99;20.52;96983.41;6181010;28;19933;-66
2022/08/11 11:39:28;;;;;;;;;;;;;;;35.49;21.28;96976.28;6220573;28;20400;-66
2022/08/11 11:42:29;;;;;;;;;;;;;;;35.20;21.92;96979.22;6222156;28;19926;-65
2022/08/11 11:45:33;;;;;;;;;;;;;;;35.02;22.14;96979.50;6224661;28;20338;-66
2022/08/11 11:48:39;;;;;;;;;;;;;;;35.26;22.77;96975.47;6225611;28;19925;-66
2022/08/11 11:51:46;;;;;;;;;;;;;;;35.47;22.22;96972.97;6225027;28;19925;-66
2022/08/11 11:54:49;;;;;;;;;;;;;;;36.40;21.22;96973.63;6225238;28;19925;-65
2022/08/11 12:01:15;;;;;;;;;;;;;;;35.54;21.77;96970.88;6225055;28;19988;-65
2022/08/11 12:04:19;;;;;;;;;;;;;;;34.61;23.09;96965.25;6224783;28;19925;-64
2022/08/11 12:14:22;;;;;;;;;;;;;;;34.55;22.95;96942.50;6223696;28;19925;-66
2022/08/11 12:17:26;;;;;;;;;;;;;;;35.23;22.28;96951.34;6223801;28;20413;-65
2022/08/11 12:20:30;;;;;;;;;;;;;;;35.93;21.21;96946.13;6224508;28;19931;-65
2022/08/11 12:30:13;;;;;;;;;;;;;;;36.59;20.77;96935.72;6224279;28;20310;-66
2022/08/11 12:33:15;;;;;;;;;;;;;;;36.26;21.13;96941.47;6223058;28;19926;-65
2022/08/11 12:36:21;;;;;;;;;;;;;;;35.86;21.05;96937.28;6223929;28;19925;-65
2022/08/11 12:46:19;;;;;;;;;;;;;;;33.27;23.86;96944.84;6223914;28;19994;-65
2022/08/11 12:52:52;;;;;;;;;;;;;;;32.02;25.37;96960.50;6205039;28;19929;-66
2022/08/11 13:06:06;;;;;;;;;;;;;;;30.85;28.87;97015.91;6223621;28;19925;-65
2022/08/11 13:09:10;;;;;;;;;;;;;;;30.47;30.85;97018.78;6222225;28;19925;-65
2022/08/11 13:15:39;;;;;;;;;;;;;;;28.03;35.23;97071.59;6223171;28;19925;-65
2022/08/11 13:18:41;;;;;;;;;;;;;;;26.89;36.99;97072.06;6222904;28;19925;-65
2022/08/11 13:21:42;;;;;;;;;;;;;;;26.16;40.46;97068.75;6222648;28;19931;-66
2022/08/11 13:24:47;;;;;;;;;;;;;;;24.64;45.20;97061.19;6223518;28;19926;-66
2022/08/11 13:27:52;;;;;;;;;;;;;;;23.62;50.20;97059.78;6223437;28;19925;-66
2022/08/11 13:31:13;;;;;;;;;;;;;;;22.42;55.12;97066.03;6223279;28;19927;-68
2022/08/11 13:34:17;;;;;;;;;;;;;;;21.31;59.65;97065.47;6222288;28;19925;-69
2022/08/11 13:37:24;;;;;;;;;;;;;;;21.02;61.89;97063.19;6206021;28;20016;-70
2022/08/11 13:40:31;;;;;;;;;;;;;;;20.39;64.80;97058.94;6223178;28;19984;-69
2022/08/11 13:43:38;;;;;;;;;;;;;;;20.13;64.17;97042.88;6222582;28;19929;-69
2022/08/11 13:46:42;;;;;;;;;;;;;;;20.13;64.00;97051.72;6222443;28;19948;-68
2022/08/11 13:49:50;;;;;;;;;;;;;;;20.28;63.32;97038.66;6222316;28;19925;-68
2022/08/11 13:52:56;;;;;;;;;;;;;;;20.41;62.97;97035.56;6222033;28;19925;-68
2022/08/11 13:56:01;;;;;;;;;;;;;;;20.56;62.32;97023.31;6222718;28;20016;-67
2022/08/11 13:59:09;;;;;;;;;;;;;;;21.07;61.92;97018.88;6222650;28;19932;-66
2022/08/11 14:02:16;;;;;;;;;;;;;;;21.49;61.18;97009.19;6221636;28;20016;-67
2022/08/11 14:05:21;;;;;;;;;;;;;;;21.84;58.53;97013.41;6221763;28;19925;-66
2022/08/11 14:08:31;;;;;;;;;;;;;;;22.14;58.24;97005.69;6222663;28;19926;-65
2022/08/11 14:14:58;;;;;;;;;;;;;;;23.02;56.07;97012.94;6222424;28;19925;-67
2022/08/11 14:18:06;;;;;;;;;;;;;;;23.43;55.60;97020.75;6222478;28;19925;-66
2022/08/11 14:24:48;;;;;;;;;;;;;;;24.10;54.09;97023.69;6222061;28;19929;-65
2022/08/11 14:27:50;;;;;;;;;;;;;;;24.25;53.28;97028.25;6221244;28;19925;-66
2022/08/11 14:30:56;;;;;;;;;;;;;;;24.29;52.86;97027.72;6221567;28;19929;-65
2022/08/11 14:34:04;;;;;;;;;;;;;;;24.33;52.90;97038.94;6221707;28;19925;-65
2022/08/11 14:37:07;;;;;;;;;;;;;;;24.33;52.94;97044.34;6221774;28;19928;-66
2022/08/11 14:47:03;;;;;;;;;;;;;;;24.23;53.56;97049.13;6221528;28;20048;-66
2022/08/11 14:47:05;;;;;;;;;;;;;;;23.91;53.76;97056.41;6221661;28;20010;-65
2022/08/11 14:50:12;;;;;;;;;;;;;;;23.77;53.95;97059.88;6221368;28;19936;-66
2022/08/11 14:53:16;;;;;;;;;;;;;;;23.60;54.39;97057.25;6204042;28;19926;-66
2022/08/11 14:56:37;;;;;;;;;;;;;;;23.47;55.10;97060.53;6221514;28;20407;-65
2022/08/11 14:59:42;;;;;;;;;;;;;;;23.40;54.98;97067.59;6221426;28;19925;-66
2022/08/11 15:03:09;;;;;;;;;;;;;;;23.34;54.88;97059.41;6220328;28;20137;-65
2022/08/11 15:06:13;;;;;;;;;;;;;;;23.25;54.76;97056.75;6221751;28;20342;-66
2022/08/11 15:09:14;;;;;;;;;;;;;;;23.18;55.17;97066.50;6220418;28;20422;-65
2022/08/11 15:12:18;;;;;;;;;;;;;;;23.12;55.25;97069.06;6220868;28;19937;-66
2022/08/11 15:18:43;;;;;;;;;;;;;;;23.00;55.50;97068.59;6226155;28;20303;-65
2022/08/11 15:25:09;;;;;;;;;;;;;;;22.86;55.58;97062.91;6225873;28;19937;-66
2022/08/11 15:38:05;;;;;;;;;;;;;;;22.97;54.75;97068.94;6224663;28;19933;-66
2022/08/11 15:48:01;;;;;;;;;;;;;;;23.29;53.85;97079.56;6224458;28;19925;-65
2022/08/11 15:51:37;;;;;;;;;;;;;;;23.37;53.99;97070.63;6224889;28;19925;-65
2022/08/11 15:54:42;;;;;;;;;;;;;;;23.29;54.03;97074.19;6182858;28;20399;-66
2022/08/11 16:04:29;;;;;;;;;;;;;;;23.16;54.19;97073.94;6206952;28;19926;-66
2022/08/11 16:07:34;;;;;;;;;;;;;;;23.24;54.32;97081.94;6225117;28;19925;-65
2022/08/11 16:10:38;;;;;;;;;;;;;;;23.26;54.15;97085.28;6225202;28;19933;-65
2022/08/11 16:16:46;;;;;;;;;;;;;;;23.50;53.94;97075.47;6225070;28;19926;-66
2022/08/11 16:19:50;;;;;;;;;;;;;;;23.51;53.55;97085.19;6225177;28;19925;-66
2022/08/11 16:22:53;;;;;;;;;;;;;;;23.58;54.34;97077.25;6224203;28;19932;-66
2022/08/11 16:25:55;;;;;;;;;;;;;;;23.55;53.67;97073.06;6224192;28;19925;-66
2022/08/11 16:28:58;;;;;;;;;;;;;;;23.49;53.92;97073.75;6223213;28;19931;-66
2022/08/11 16:32:16;;;;;;;;;;;;;;;23.46;53.71;97080.31;6224706;28;20040;-67
2022/08/11 16:38:48;;;;;;;;;;;;;;;23.37;54.25;97091.28;6224961;28;20020;-66
2022/08/11 16:48:32;;;;;;;;;;;;;;;23.02;54.80;97080.00;6224215;28;20434;-66
2022/08/11 16:51:37;;;;;;;;;;;;;;;22.88;55.22;97091.44;6224181;28;20318;-66
2022/08/11 16:54:40;;;;;;;;;;;;;;;22.80;54.58;97089.59;6224181;28;19925;-66
2022/08/11 17:01:05;;;;;;;;;;;;;;;22.74;55.81;97090.28;6223048;28;19926;-67
2022/08/11 17:14:45;;;;;;;;;;;;;;;22.16;57.32;97092.94;6222681;28;20020;-66
2022/08/11 17:17:48;;;;;;;;;;;;;;;22.02;57.47;97087.41;6223128;28;20292;-65
2022/08/11 17:20:54;;;;;;;;;;;;;;;21.86;57.63;97090.94;6223600;28;19926;-66
2022/08/11 17:24:09;;;;;;;;;;;;;;;21.72;57.71;97092.41;6223492;28;19981;-66
2022/08/11 17:27:18;;;;;;;;;;;;;;;21.63;58.27;97088.03;6223111;28;19925;-66
2022/08/11 17:35:27;;;;;;;;;;;;;;;21.63;59.44;97096.06;6223368;28;20020;-67
2022/08/11 17:37:08;;;;;;;;;;;;;;;21.41;60.14;97097.50;6223290;28;19926;-65
2022/08/11 17:40:12;;;;;;;;;;;;;;;21.25;59.72;97100.91;6221143;28;19933;-65
2022/08/11 17:50:08;;;;;;;;;;;;;;;21.00;60.43;97095.41;6223147;28;19926;-66
2022/08/11 17:59:55;;;;;;;;;;;;;;;20.78;60.58;97101.34;6222177;28;19925;-67
2022/08/11 18:06:20;;;;;;;;;;;;;;;20.69;60.48;97102.25;6222177;28;19926;-65
